sensor_id;sensor_type;location;lat;lon;timestamp;P1;P2;P0
70243;PMS7003;57634;51.136;17.024;2023-05-27T00:01:27;3;2;1
70243;PMS7003;57634;51.136;17.024;2023-05-27T00:04:28;4;3;2
70243;PMS7003;57634;51.136;17.024;2023-05-27T00:07:29;3;3;2
70243;PMS7003;57634;51.136;17.024;2023-05-27T00:10:31;4;4;2
70243;PMS7003;57634;51.136;17.024;2023-05-27T00:13:33;3;3;2
70243;PMS7003;57634;51.136;17.024;2023-05-27T00:16:35;3;3;2
70243;PMS7003;57634;51.136;17.024;2023-05-27T00:19:36;5;4;2
70243;PMS7003;57634;51.136;17.024;2023-05-27T00:22:37;4;4;2
70243;PMS7003;57634;51.136;17.024;2023-05-27T00:25:39;2;2;2
70243;PMS7003;57634;51.136;17.024;2023-05-27T00:28:41;4;3;2
70243;PMS7003;57634;51.136;17.024;2023-05-27T00:31:42;6;5;2
70243;PMS7003;57634;51.136;17.024;2023-05-27T00:35:11;3;3;2
70243;PMS7003;57634;51.136;17.024;2023-05-27T00:38:12;3;2;2
70243;PMS7003;57634;51.136;17.024;2023-05-27T00:41:14;4;4;2
70243;PMS7003;57634;51.136;17.024;2023-05-27T00:44:15;2;1;1
70243;PMS7003;57634;51.136;17.024;2023-05-27T00:47:17;5;3;2
70243;PMS7003;57634;51.136;17.024;2023-05-27T00:50:19;3;2;1
70243;PMS7003;57634;51.136;17.024;2023-05-27T00:53:25;3;3;1
70243;PMS7003;57634;51.136;17.024;2023-05-27T00:56:27;4;4;2
70243;PMS7003;57634;51.136;17.024;2023-05-27T00:59:29;4;2;2
70243;PMS7003;57634;51.136;17.024;2023-05-27T01:02:30;4;2;1
70243;PMS7003;57634;51.136;17.024;2023-05-27T01:05:32;3;3;1
70243;PMS7003;57634;51.136;17.024;2023-05-27T01:08:37;4;3;2
70243;PMS7003;57634;51.136;17.024;2023-05-27T01:15:28;2;2;1
70243;PMS7003;57634;51.136;17.024;2023-05-27T01:18:33;4;4;2
70243;PMS7003;57634;51.136;17.024;2023-05-27T01:21:35;5;2;2
70243;PMS7003;57634;51.136;17.024;2023-05-27T01:24:40;4;3;2
70243;PMS7003;57634;51.136;17.024;2023-05-27T01:27:42;4;3;2
70243;PMS7003;57634;51.136;17.024;2023-05-27T01:30:45;3;3;2
70243;PMS7003;57634;51.136;17.024;2023-05-27T01:33:52;4;3;2
70243;PMS7003;57634;51.136;17.024;2023-05-27T01:37:24;2;2;1
70243;PMS7003;57634;51.136;17.024;2023-05-27T01:40:31;4;3;2
70243;PMS7003;57634;51.136;17.024;2023-05-27T01:43:36;3;3;2
70243;PMS7003;57634;51.136;17.024;2023-05-27T01:46:41;2;2;1
70243;PMS7003;57634;51.136;17.024;2023-05-27T01:49:43;2;2;2
70243;PMS7003;57634;51.136;17.024;2023-05-27T01:52:44;3;3;2
70243;PMS7003;57634;51.136;17.024;2023-05-27T01:55:46;3;3;2
70243;PMS7003;57634;51.136;17.024;2023-05-27T01:58:47;3;2;2
70243;PMS7003;57634;51.136;17.024;2023-05-27T02:01:48;3;2;1
70243;PMS7003;57634;51.136;17.024;2023-05-27T02:04:50;3;3;1
70243;PMS7003;57634;51.136;17.024;2023-05-27T02:07:51;2;1;0
70243;PMS7003;57634;51.136;17.024;2023-05-27T02:11:21;5;2;1
70243;PMS7003;57634;51.136;17.024;2023-05-27T02:14:22;2;1;0
70243;PMS7003;57634;51.136;17.024;2023-05-27T02:17:23;2;2;1
70243;PMS7003;57634;51.136;17.024;2023-05-27T02:20:25;2;2;1
70243;PMS7003;57634;51.136;17.024;2023-05-27T02:23:26;2;2;1
70243;PMS7003;57634;51.136;17.024;2023-05-27T02:26:27;3;2;1
70243;PMS7003;57634;51.136;17.024;2023-05-27T02:29:28;3;1;1
70243;PMS7003;57634;51.136;17.024;2023-05-27T02:32:30;2;2;1
70243;PMS7003;57634;51.136;17.024;2023-05-27T02:35:32;2;2;1
70243;PMS7003;57634;51.136;17.024;2023-05-27T02:38:33;1;1;1
70243;PMS7003;57634;51.136;17.024;2023-05-27T02:41:35;2;2;2
70243;PMS7003;57634;51.136;17.024;2023-05-27T02:44:36;2;1;0
70243;PMS7003;57634;51.136;17.024;2023-05-27T02:47:37;3;3;2
70243;PMS7003;57634;51.136;17.024;2023-05-27T02:50:38;2;1;0
70243;PMS7003;57634;51.136;17.024;2023-05-27T02:53:40;4;2;1
70243;PMS7003;57634;51.136;17.024;2023-05-27T02:57:07;4;4;1
70243;PMS7003;57634;51.136;17.024;2023-05-27T03:00:09;3;2;1
70243;PMS7003;57634;51.136;17.024;2023-05-27T03:03:12;3;3;1
70243;PMS7003;57634;51.136;17.024;2023-05-27T03:06:14;2;1;0
70243;PMS7003;57634;51.136;17.024;2023-05-27T03:09:16;3;3;1
70243;PMS7003;57634;51.136;17.024;2023-05-27T03:12:17;2;2;1
70243;PMS7003;57634;51.136;17.024;2023-05-27T03:15:18;2;2;1
70243;PMS7003;57634;51.136;17.024;2023-05-27T03:18:22;2;2;1
70243;PMS7003;57634;51.136;17.024;2023-05-27T03:21:23;1;1;1
70243;PMS7003;57634;51.136;17.024;2023-05-27T03:24:24;3;1;0
70243;PMS7003;57634;51.136;17.024;2023-05-27T03:27:25;2;2;0
70243;PMS7003;57634;51.136;17.024;2023-05-27T03:30:27;3;0;0
70243;PMS7003;57634;51.136;17.024;2023-05-27T03:33:28;2;2;1
70243;PMS7003;57634;51.136;17.024;2023-05-27T03:36:29;2;2;1
70243;PMS7003;57634;51.136;17.024;2023-05-27T03:39:56;1;0;0
70243;PMS7003;57634;51.136;17.024;2023-05-27T03:42:58;2;2;1
70243;PMS7003;57634;51.136;17.024;2023-05-27T03:45:59;3;2;1
70243;PMS7003;57634;51.136;17.024;2023-05-27T03:49:02;1;1;1
70243;PMS7003;57634;51.136;17.024;2023-05-27T03:52:03;4;2;1
70243;PMS7003;57634;51.136;17.024;2023-05-27T03:55:05;3;2;1
70243;PMS7003;57634;51.136;17.024;2023-05-27T03:58:07;5;3;2
70243;PMS7003;57634;51.136;17.024;2023-05-27T04:01:08;3;2;2
70243;PMS7003;57634;51.136;17.024;2023-05-27T04:04:10;2;2;0
70243;PMS7003;57634;51.136;17.024;2023-05-27T04:07:12;2;1;1
70243;PMS7003;57634;51.136;17.024;2023-05-27T04:10:13;3;2;1
70243;PMS7003;57634;51.136;17.024;2023-05-27T04:13:15;2;2;1
70243;PMS7003;57634;51.136;17.024;2023-05-27T04:16:16;4;2;1
70243;PMS7003;57634;51.136;17.024;2023-05-27T04:19:17;5;3;2
70243;PMS7003;57634;51.136;17.024;2023-05-27T04:22:44;4;3;2
70243;PMS7003;57634;51.136;17.024;2023-05-27T04:25:45;4;1;1
70243;PMS7003;57634;51.136;17.024;2023-05-27T04:28:50;4;3;2
70243;PMS7003;57634;51.136;17.024;2023-05-27T04:31:51;3;3;2
70243;PMS7003;57634;51.136;17.024;2023-05-27T04:34:53;3;3;2
70243;PMS7003;57634;51.136;17.024;2023-05-27T04:37:54;3;2;1
70243;PMS7003;57634;51.136;17.024;2023-05-27T04:40:56;3;2;1
70243;PMS7003;57634;51.136;17.024;2023-05-27T04:43:59;3;3;1
70243;PMS7003;57634;51.136;17.024;2023-05-27T04:47:03;4;3;1
70243;PMS7003;57634;51.136;17.024;2023-05-27T04:50:06;0;0;0
70243;PMS7003;57634;51.136;17.024;2023-05-27T04:53:08;3;3;1
70243;PMS7003;57634;51.136;17.024;2023-05-27T04:56:10;3;3;2
70243;PMS7003;57634;51.136;17.024;2023-05-27T04:59:43;2;2;2
70243;PMS7003;57634;51.136;17.024;2023-05-27T05:03:00;2;1;0
70243;PMS7003;57634;51.136;17.024;2023-05-27T05:06:01;2;2;1
70243;PMS7003;57634;51.136;17.024;2023-05-27T05:09:03;3;3;2
70243;PMS7003;57634;51.136;17.024;2023-05-27T05:12:05;4;3;1
70243;PMS7003;57634;51.136;17.024;2023-05-27T05:15:07;2;2;1
70243;PMS7003;57634;51.136;17.024;2023-05-27T05:18:09;3;2;1
70243;PMS7003;57634;51.136;17.024;2023-05-27T05:21:11;2;2;1
70243;PMS7003;57634;51.136;17.024;2023-05-27T05:24:12;1;1;0
70243;PMS7003;57634;51.136;17.024;2023-05-27T05:27:14;1;1;1
70243;PMS7003;57634;51.136;17.024;2023-05-27T05:30:15;2;1;1
70243;PMS7003;57634;51.136;17.024;2023-05-27T05:33:42;1;1;0
70243;PMS7003;57634;51.136;17.024;2023-05-27T05:36:43;2;2;1
70243;PMS7003;57634;51.136;17.024;2023-05-27T05:39:44;4;2;0
70243;PMS7003;57634;51.136;17.024;2023-05-27T05:42:45;1;1;0
70243;PMS7003;57634;51.136;17.024;2023-05-27T05:45:47;2;1;0
70243;PMS7003;57634;51.136;17.024;2023-05-27T05:48:50;1;1;0
70243;PMS7003;57634;51.136;17.024;2023-05-27T05:51:54;2;1;1
70243;PMS7003;57634;51.136;17.024;2023-05-27T05:54:55;0;0;0
70243;PMS7003;57634;51.136;17.024;2023-05-27T05:57:59;1;1;0
70243;PMS7003;57634;51.136;17.024;2023-05-27T06:01:01;0;0;0
70243;PMS7003;57634;51.136;17.024;2023-05-27T06:04:05;3;0;0
70243;PMS7003;57634;51.136;17.024;2023-05-27T06:07:07;0;0;0
70243;PMS7003;57634;51.136;17.024;2023-05-27T06:10:09;2;2;0
70243;PMS7003;57634;51.136;17.024;2023-05-27T06:13:36;0;0;0
70243;PMS7003;57634;51.136;17.024;2023-05-27T06:16:37;1;0;0
70243;PMS7003;57634;51.136;17.024;2023-05-27T06:19:40;0;0;0
70243;PMS7003;57634;51.136;17.024;2023-05-27T06:22:41;0;0;0
70243;PMS7003;57634;51.136;17.024;2023-05-27T06:25:42;0;0;0
70243;PMS7003;57634;51.136;17.024;2023-05-27T06:28:43;0;0;0
70243;PMS7003;57634;51.136;17.024;2023-05-27T06:31:45;1;0;0
70243;PMS7003;57634;51.136;17.024;2023-05-27T06:34:49;0;0;0
70243;PMS7003;57634;51.136;17.024;2023-05-27T06:37:50;0;0;0
70243;PMS7003;57634;51.136;17.024;2023-05-27T06:40:51;0;0;0
70243;PMS7003;57634;51.136;17.024;2023-05-27T06:43:52;0;0;0
70243;PMS7003;57634;51.136;17.024;2023-05-27T06:46:53;0;0;0
70243;PMS7003;57634;51.136;17.024;2023-05-27T06:49:55;0;0;0
70243;PMS7003;57634;51.136;17.024;2023-05-27T06:52:56;0;0;0
70243;PMS7003;57634;51.136;17.024;2023-05-27T06:55:57;0;0;0
70243;PMS7003;57634;51.136;17.024;2023-05-27T06:59:25;4;4;3
70243;PMS7003;57634;51.136;17.024;2023-05-27T07:02:26;0;0;0
70243;PMS7003;57634;51.136;17.024;2023-05-27T07:05:27;0;0;0
70243;PMS7003;57634;51.136;17.024;2023-05-27T07:08:28;0;0;0
70243;PMS7003;57634;51.136;17.024;2023-05-27T07:11:29;0;0;0
70243;PMS7003;57634;51.136;17.024;2023-05-27T07:14:32;0;0;0
70243;PMS7003;57634;51.136;17.024;2023-05-27T07:17:33;0;0;0
70243;PMS7003;57634;51.136;17.024;2023-05-27T07:20:35;0;0;0
70243;PMS7003;57634;51.136;17.024;2023-05-27T07:23:36;0;0;0
70243;PMS7003;57634;51.136;17.024;2023-05-27T07:26:37;0;0;0
70243;PMS7003;57634;51.136;17.024;2023-05-27T07:29:39;0;0;0
70243;PMS7003;57634;51.136;17.024;2023-05-27T07:32:40;0;0;0
70243;PMS7003;57634;51.136;17.024;2023-05-27T07:35:41;0;0;0
70243;PMS7003;57634;51.136;17.024;2023-05-27T07:38:42;1;1;0
70243;PMS7003;57634;51.136;17.024;2023-05-27T07:41:43;0;0;0
70243;PMS7003;57634;51.136;17.024;2023-05-27T07:44:44;0;0;0
70243;PMS7003;57634;51.136;17.024;2023-05-27T07:48:12;0;0;0
70243;PMS7003;57634;51.136;17.024;2023-05-27T07:51:14;0;0;0
70243;PMS7003;57634;51.136;17.024;2023-05-27T07:54:15;0;0;0
70243;PMS7003;57634;51.136;17.024;2023-05-27T07:57:17;0;0;0
70243;PMS7003;57634;51.136;17.024;2023-05-27T08:00:18;0;0;0
70243;PMS7003;57634;51.136;17.024;2023-05-27T08:03:19;0;0;0
70243;PMS7003;57634;51.136;17.024;2023-05-27T08:06:22;0;0;0
70243;PMS7003;57634;51.136;17.024;2023-05-27T08:09:23;0;0;0
70243;PMS7003;57634;51.136;17.024;2023-05-27T08:12:25;0;0;0
70243;PMS7003;57634;51.136;17.024;2023-05-27T08:15:26;0;0;0
70243;PMS7003;57634;51.136;17.024;2023-05-27T08:18:27;0;0;0
70243;PMS7003;57634;51.136;17.024;2023-05-27T08:21:28;0;0;0
70243;PMS7003;57634;51.136;17.024;2023-05-27T08:24:30;2;2;1
70243;PMS7003;57634;51.136;17.024;2023-05-27T08:28:02;0;0;0
70243;PMS7003;57634;51.136;17.024;2023-05-27T08:31:04;0;0;0
70243;PMS7003;57634;51.136;17.024;2023-05-27T08:34:05;0;0;0
70243;PMS7003;57634;51.136;17.024;2023-05-27T08:37:07;1;0;0
70243;PMS7003;57634;51.136;17.024;2023-05-27T08:40:15;0;0;0
70243;PMS7003;57634;51.136;17.024;2023-05-27T08:43:17;0;0;0
70243;PMS7003;57634;51.136;17.024;2023-05-27T08:46:18;0;0;0
70243;PMS7003;57634;51.136;17.024;2023-05-27T08:50:18;0;0;0
70243;PMS7003;57634;51.136;17.024;2023-05-27T08:53:19;1;1;0
70243;PMS7003;57634;51.136;17.024;2023-05-27T08:56:22;0;0;0
70243;PMS7003;57634;51.136;17.024;2023-05-27T08:59:24;0;0;0
70243;PMS7003;57634;51.136;17.024;2023-05-27T09:02:27;4;4;3
70243;PMS7003;57634;51.136;17.024;2023-05-27T09:05:28;1;1;0
70243;PMS7003;57634;51.136;17.024;2023-05-27T09:08:29;1;0;0
70243;PMS7003;57634;51.136;17.024;2023-05-27T09:11:32;1;1;0
70243;PMS7003;57634;51.136;17.024;2023-05-27T09:14:36;0;0;0
70243;PMS7003;57634;51.136;17.024;2023-05-27T09:17:44;0;0;0
70243;PMS7003;57634;51.136;17.024;2023-05-27T09:21:14;0;0;0
70243;PMS7003;57634;51.136;17.024;2023-05-27T09:24:15;0;0;0
70243;PMS7003;57634;51.136;17.024;2023-05-27T09:27:16;0;0;0
70243;PMS7003;57634;51.136;17.024;2023-05-27T09:30:18;0;0;0
70243;PMS7003;57634;51.136;17.024;2023-05-27T09:33:24;1;0;0
70243;PMS7003;57634;51.136;17.024;2023-05-27T09:36:26;0;0;0
70243;PMS7003;57634;51.136;17.024;2023-05-27T09:39:27;0;0;0
70243;PMS7003;57634;51.136;17.024;2023-05-27T09:42:37;1;1;0
70243;PMS7003;57634;51.136;17.024;2023-05-27T09:45:44;2;1;0
70243;PMS7003;57634;51.136;17.024;2023-05-27T09:48:46;1;1;0
70243;PMS7003;57634;51.136;17.024;2023-05-27T09:52:12;1;0;0
70243;PMS7003;57634;51.136;17.024;2023-05-27T09:55:21;1;1;0
70243;PMS7003;57634;51.136;17.024;2023-05-27T09:58:24;1;0;0
70243;PMS7003;57634;51.136;17.024;2023-05-27T10:01:26;2;1;0
70243;PMS7003;57634;51.136;17.024;2023-05-27T10:04:32;1;0;0
70243;PMS7003;57634;51.136;17.024;2023-05-27T10:07:37;0;0;0
70243;PMS7003;57634;51.136;17.024;2023-05-27T10:10:41;0;0;0
70243;PMS7003;57634;51.136;17.024;2023-05-27T10:13:42;0;0;0
70243;PMS7003;57634;51.136;17.024;2023-05-27T10:23:32;2;2;0
70243;PMS7003;57634;51.136;17.024;2023-05-27T10:26:35;1;1;1
70243;PMS7003;57634;51.136;17.024;2023-05-27T10:29:39;0;0;0
70243;PMS7003;57634;51.136;17.024;2023-05-27T10:32:47;1;1;1
70243;PMS7003;57634;51.136;17.024;2023-05-27T10:35:52;1;1;0
70243;PMS7003;57634;51.136;17.024;2023-05-27T10:38:56;1;1;0
70243;PMS7003;57634;51.136;17.024;2023-05-27T10:41:59;0;0;0
70243;PMS7003;57634;51.136;17.024;2023-05-27T10:45:31;2;1;0
70243;PMS7003;57634;51.136;17.024;2023-05-27T10:48:35;0;0;0
70243;PMS7003;57634;51.136;17.024;2023-05-27T10:51:39;0;0;0
70243;PMS7003;57634;51.136;17.024;2023-05-27T10:54:45;0;0;0
70243;PMS7003;57634;51.136;17.024;2023-05-27T10:57:48;0;0;0
70243;PMS7003;57634;51.136;17.024;2023-05-27T11:00:50;0;0;0
70243;PMS7003;57634;51.136;17.024;2023-05-27T11:03:52;0;0;0
70243;PMS7003;57634;51.136;17.024;2023-05-27T11:06:58;0;0;0
70243;PMS7003;57634;51.136;17.024;2023-05-27T11:10:04;3;1;1
70243;PMS7003;57634;51.136;17.024;2023-05-27T11:13:34;0;0;0
70243;PMS7003;57634;51.136;17.024;2023-05-27T11:16:37;1;1;1
70243;PMS7003;57634;51.136;17.024;2023-05-27T11:19:39;1;1;0
70243;PMS7003;57634;51.136;17.024;2023-05-27T11:22:40;1;1;0
70243;PMS7003;57634;51.136;17.024;2023-05-27T11:25:42;0;0;0
70243;PMS7003;57634;51.136;17.024;2023-05-27T11:28:45;1;1;0
70243;PMS7003;57634;51.136;17.024;2023-05-27T11:31:47;1;1;0
70243;PMS7003;57634;51.136;17.024;2023-05-27T11:34:48;1;0;0
70243;PMS7003;57634;51.136;17.024;2023-05-27T11:37:49;0;0;0
70243;PMS7003;57634;51.136;17.024;2023-05-27T11:40:54;0;0;0
70243;PMS7003;57634;51.136;17.024;2023-05-27T11:47:34;1;1;0
70243;PMS7003;57634;51.136;17.024;2023-05-27T11:50:43;1;1;0
70243;PMS7003;57634;51.136;17.024;2023-05-27T11:53:45;1;1;0
70243;PMS7003;57634;51.136;17.024;2023-05-27T11:56:47;1;0;0
70243;PMS7003;57634;51.136;17.024;2023-05-27T11:59:49;0;0;0
70243;PMS7003;57634;51.136;17.024;2023-05-27T12:02:50;1;1;0
70243;PMS7003;57634;51.136;17.024;2023-05-27T12:05:52;0;0;0
70243;PMS7003;57634;51.136;17.024;2023-05-27T12:08:53;0;0;0
70243;PMS7003;57634;51.136;17.024;2023-05-27T12:11:54;1;1;0
70243;PMS7003;57634;51.136;17.024;2023-05-27T12:14:55;0;0;0
70243;PMS7003;57634;51.136;17.024;2023-05-27T12:17:56;1;1;0
70243;PMS7003;57634;51.136;17.024;2023-05-27T12:20:57;1;0;0
70243;PMS7003;57634;51.136;17.024;2023-05-27T12:23:58;1;0;0
70243;PMS7003;57634;51.136;17.024;2023-05-27T12:27:25;0;0;0
70243;PMS7003;57634;51.136;17.024;2023-05-27T12:30:26;0;0;0
70243;PMS7003;57634;51.136;17.024;2023-05-27T12:33:27;1;1;0
70243;PMS7003;57634;51.136;17.024;2023-05-27T12:36:28;1;1;0
70243;PMS7003;57634;51.136;17.024;2023-05-27T12:39:30;2;2;1
70243;PMS7003;57634;51.136;17.024;2023-05-27T12:42:31;0;0;0
70243;PMS7003;57634;51.136;17.024;2023-05-27T12:45:33;0;0;0
70243;PMS7003;57634;51.136;17.024;2023-05-27T12:48:35;1;0;0
70243;PMS7003;57634;51.136;17.024;2023-05-27T12:51:37;1;0;0
70243;PMS7003;57634;51.136;17.024;2023-05-27T12:54:39;0;0;0
70243;PMS7003;57634;51.136;17.024;2023-05-27T12:57:40;0;0;0
70243;PMS7003;57634;51.136;17.024;2023-05-27T13:00:43;0;0;0
70243;PMS7003;57634;51.136;17.024;2023-05-27T13:03:45;0;0;0
70243;PMS7003;57634;51.136;17.024;2023-05-27T13:06:47;1;1;0
70243;PMS7003;57634;51.136;17.024;2023-05-27T13:10:13;1;1;0
70243;PMS7003;57634;51.136;17.024;2023-05-27T13:13:18;0;0;0
70243;PMS7003;57634;51.136;17.024;2023-05-27T13:16:19;1;1;0
70243;PMS7003;57634;51.136;17.024;2023-05-27T13:19:20;1;0;0
70243;PMS7003;57634;51.136;17.024;2023-05-27T13:22:23;0;0;0
70243;PMS7003;57634;51.136;17.024;2023-05-27T13:25:24;0;0;0
70243;PMS7003;57634;51.136;17.024;2023-05-27T13:28:26;1;0;0
70243;PMS7003;57634;51.136;17.024;2023-05-27T13:31:27;0;0;0
70243;PMS7003;57634;51.136;17.024;2023-05-27T13:34:28;0;0;0
70243;PMS7003;57634;51.136;17.024;2023-05-27T13:37:30;3;2;0
70243;PMS7003;57634;51.136;17.024;2023-05-27T13:40:31;0;0;0
70243;PMS7003;57634;51.136;17.024;2023-05-27T13:43:33;0;0;0
70243;PMS7003;57634;51.136;17.024;2023-05-27T13:46:34;0;0;0
70243;PMS7003;57634;51.136;17.024;2023-05-27T13:50:04;0;0;0
70243;PMS7003;57634;51.136;17.024;2023-05-27T13:53:06;1;1;0
70243;PMS7003;57634;51.136;17.024;2023-05-27T13:56:08;1;1;0
70243;PMS7003;57634;51.136;17.024;2023-05-27T13:59:09;1;1;0
70243;PMS7003;57634;51.136;17.024;2023-05-27T14:02:14;1;1;0
70243;PMS7003;57634;51.136;17.024;2023-05-27T14:05:15;0;0;0
70243;PMS7003;57634;51.136;17.024;2023-05-27T14:08:17;0;0;0
70243;PMS7003;57634;51.136;17.024;2023-05-27T14:11:19;1;1;1
70243;PMS7003;57634;51.136;17.024;2023-05-27T14:14:23;0;0;0
70243;PMS7003;57634;51.136;17.024;2023-05-27T14:17:24;0;0;0
70243;PMS7003;57634;51.136;17.024;2023-05-27T14:20:25;0;0;0
70243;PMS7003;57634;51.136;17.024;2023-05-27T14:23:27;0;0;0
70243;PMS7003;57634;51.136;17.024;2023-05-27T14:26:28;0;0;0
70243;PMS7003;57634;51.136;17.024;2023-05-27T14:29:55;0;0;0
70243;PMS7003;57634;51.136;17.024;2023-05-27T14:33:02;5;5;3
70243;PMS7003;57634;51.136;17.024;2023-05-27T14:36:07;1;1;0
70243;PMS7003;57634;51.136;17.024;2023-05-27T14:39:09;0;0;0
70243;PMS7003;57634;51.136;17.024;2023-05-27T14:42:10;1;1;0
70243;PMS7003;57634;51.136;17.024;2023-05-27T14:45:11;0;0;0
70243;PMS7003;57634;51.136;17.024;2023-05-27T14:48:13;0;0;0
70243;PMS7003;57634;51.136;17.024;2023-05-27T14:51:15;0;0;0
70243;PMS7003;57634;51.136;17.024;2023-05-27T14:54:17;0;0;0
70243;PMS7003;57634;51.136;17.024;2023-05-27T14:57:18;0;0;0
70243;PMS7003;57634;51.136;17.024;2023-05-27T15:00:19;0;0;0
70243;PMS7003;57634;51.136;17.024;2023-05-27T15:03:21;0;0;0
70243;PMS7003;57634;51.136;17.024;2023-05-27T15:06:48;0;0;0
70243;PMS7003;57634;51.136;17.024;2023-05-27T15:09:49;1;1;0
70243;PMS7003;57634;51.136;17.024;2023-05-27T15:12:51;0;0;0
70243;PMS7003;57634;51.136;17.024;2023-05-27T15:15:52;1;1;0
70243;PMS7003;57634;51.136;17.024;2023-05-27T15:18:53;0;0;0
70243;PMS7003;57634;51.136;17.024;2023-05-27T15:21:54;1;0;0
70243;PMS7003;57634;51.136;17.024;2023-05-27T15:24:56;0;0;0
70243;PMS7003;57634;51.136;17.024;2023-05-27T15:27:57;0;0;0
70243;PMS7003;57634;51.136;17.024;2023-05-27T15:30:58;0;0;0
70243;PMS7003;57634;51.136;17.024;2023-05-27T15:34:01;2;1;0
70243;PMS7003;57634;51.136;17.024;2023-05-27T15:37:03;0;0;0
70243;PMS7003;57634;51.136;17.024;2023-05-27T15:40:05;0;0;0
70243;PMS7003;57634;51.136;17.024;2023-05-27T15:43:07;0;0;0
70243;PMS7003;57634;51.136;17.024;2023-05-27T15:46:09;0;0;0
70243;PMS7003;57634;51.136;17.024;2023-05-27T15:49:38;0;0;0
70243;PMS7003;57634;51.136;17.024;2023-05-27T15:52:39;1;1;0
70243;PMS7003;57634;51.136;17.024;2023-05-27T15:55:42;0;0;0
70243;PMS7003;57634;51.136;17.024;2023-05-27T15:58:43;0;0;0
70243;PMS7003;57634;51.136;17.024;2023-05-27T16:01:44;1;0;0
70243;PMS7003;57634;51.136;17.024;2023-05-27T16:04:46;0;0;0
70243;PMS7003;57634;51.136;17.024;2023-05-27T16:07:47;0;0;0
70243;PMS7003;57634;51.136;17.024;2023-05-27T16:13:56;0;0;0
70243;PMS7003;57634;51.136;17.024;2023-05-27T16:16:57;1;1;0
70243;PMS7003;57634;51.136;17.024;2023-05-27T16:19:58;0;0;0
70243;PMS7003;57634;51.136;17.024;2023-05-27T16:23:00;0;0;0
70243;PMS7003;57634;51.136;17.024;2023-05-27T16:26:01;0;0;0
70243;PMS7003;57634;51.136;17.024;2023-05-27T16:29:28;0;0;0
70243;PMS7003;57634;51.136;17.024;2023-05-27T16:32:30;0;0;0
70243;PMS7003;57634;51.136;17.024;2023-05-27T16:35:32;0;0;0
70243;PMS7003;57634;51.136;17.024;2023-05-27T16:38:33;0;0;0
70243;PMS7003;57634;51.136;17.024;2023-05-27T16:41:35;0;0;0
70243;PMS7003;57634;51.136;17.024;2023-05-27T16:44:36;2;0;0
70243;PMS7003;57634;51.136;17.024;2023-05-27T16:47:37;0;0;0
70243;PMS7003;57634;51.136;17.024;2023-05-27T16:50:39;0;0;0
70243;PMS7003;57634;51.136;17.024;2023-05-27T16:53:41;0;0;0
70243;PMS7003;57634;51.136;17.024;2023-05-27T16:56:42;1;0;0
70243;PMS7003;57634;51.136;17.024;2023-05-27T16:59:44;0;0;0
70243;PMS7003;57634;51.136;17.024;2023-05-27T17:02:46;1;0;0
70243;PMS7003;57634;51.136;17.024;2023-05-27T17:05:47;1;1;0
70243;PMS7003;57634;51.136;17.024;2023-05-27T17:08:48;1;1;0
70243;PMS7003;57634;51.136;17.024;2023-05-27T17:12:17;0;0;0
70243;PMS7003;57634;51.136;17.024;2023-05-27T17:15:18;0;0;0
70243;PMS7003;57634;51.136;17.024;2023-05-27T17:18:20;1;1;0
70243;PMS7003;57634;51.136;17.024;2023-05-27T17:21:21;2;2;1
70243;PMS7003;57634;51.136;17.024;2023-05-27T17:24:24;1;1;1
70243;PMS7003;57634;51.136;17.024;2023-05-27T17:27:25;1;0;0
70243;PMS7003;57634;51.136;17.024;2023-05-27T17:30:27;1;1;1
70243;PMS7003;57634;51.136;17.024;2023-05-27T17:33:29;0;0;0
70243;PMS7003;57634;51.136;17.024;2023-05-27T17:36:30;1;1;0
70243;PMS7003;57634;51.136;17.024;2023-05-27T17:39:32;1;1;0
70243;PMS7003;57634;51.136;17.024;2023-05-27T17:42:33;1;0;0
70243;PMS7003;57634;51.136;17.024;2023-05-27T17:45:34;0;0;0
70243;PMS7003;57634;51.136;17.024;2023-05-27T17:48:36;1;1;0
70243;PMS7003;57634;51.136;17.024;2023-05-27T17:51:37;1;1;0
70243;PMS7003;57634;51.136;17.024;2023-05-27T17:55:05;1;1;0
70243;PMS7003;57634;51.136;17.024;2023-05-27T17:58:08;0;0;0
70243;PMS7003;57634;51.136;17.024;2023-05-27T18:01:11;1;1;1
70243;PMS7003;57634;51.136;17.024;2023-05-27T18:04:13;2;2;1
70243;PMS7003;57634;51.136;17.024;2023-05-27T18:07:17;2;2;1
70243;PMS7003;57634;51.136;17.024;2023-05-27T18:10:18;4;3;2
70243;PMS7003;57634;51.136;17.024;2023-05-27T18:13:22;1;1;1
70243;PMS7003;57634;51.136;17.024;2023-05-27T18:16:23;1;1;1
70243;PMS7003;57634;51.136;17.024;2023-05-27T18:19:24;1;1;1
70243;PMS7003;57634;51.136;17.024;2023-05-27T18:22:26;2;2;2
70243;PMS7003;57634;51.136;17.024;2023-05-27T18:25:27;3;3;2
70243;PMS7003;57634;51.136;17.024;2023-05-27T18:28:28;4;2;2
70243;PMS7003;57634;51.136;17.024;2023-05-27T18:31:58;1;1;1
70243;PMS7003;57634;51.136;17.024;2023-05-27T18:35:00;2;2;1
70243;PMS7003;57634;51.136;17.024;2023-05-27T18:38:01;4;3;1
70243;PMS7003;57634;51.136;17.024;2023-05-27T18:41:02;2;2;1
70243;PMS7003;57634;51.136;17.024;2023-05-27T18:44:03;2;2;1
70243;PMS7003;57634;51.136;17.024;2023-05-27T18:47:05;2;1;1
70243;PMS7003;57634;51.136;17.024;2023-05-27T18:50:06;2;1;0
70243;PMS7003;57634;51.136;17.024;2023-05-27T18:53:08;2;0;0
70243;PMS7003;57634;51.136;17.024;2023-05-27T18:56:09;2;2;1
70243;PMS7003;57634;51.136;17.024;2023-05-27T18:59:11;2;2;2
70243;PMS7003;57634;51.136;17.024;2023-05-27T19:02:12;3;3;2
70243;PMS7003;57634;51.136;17.024;2023-05-27T19:05:16;3;2;1
70243;PMS7003;57634;51.136;17.024;2023-05-27T19:08:17;2;2;1
70243;PMS7003;57634;51.136;17.024;2023-05-27T19:11:18;2;2;1
70243;PMS7003;57634;51.136;17.024;2023-05-27T19:14:46;2;2;1
70243;PMS7003;57634;51.136;17.024;2023-05-27T19:17:48;2;2;2
70243;PMS7003;57634;51.136;17.024;2023-05-27T19:20:49;3;3;2
70243;PMS7003;57634;51.136;17.024;2023-05-27T19:23:51;3;3;2
70243;PMS7003;57634;51.136;17.024;2023-05-27T19:26:52;4;4;2
70243;PMS7003;57634;51.136;17.024;2023-05-27T19:29:53;5;3;3
70243;PMS7003;57634;51.136;17.024;2023-05-27T19:32:55;5;4;2
70243;PMS7003;57634;51.136;17.024;2023-05-27T19:35:56;6;4;3
70243;PMS7003;57634;51.136;17.024;2023-05-27T19:38:59;8;7;4
70243;PMS7003;57634;51.136;17.024;2023-05-27T19:42:01;5;4;4
70243;PMS7003;57634;51.136;17.024;2023-05-27T19:45:02;6;6;4
70243;PMS7003;57634;51.136;17.024;2023-05-27T19:48:04;6;5;4
70243;PMS7003;57634;51.136;17.024;2023-05-27T19:51:06;7;7;5
70243;PMS7003;57634;51.136;17.024;2023-05-27T19:54:07;7;7;6
70243;PMS7003;57634;51.136;17.024;2023-05-27T19:57:39;5;4;3
70243;PMS7003;57634;51.136;17.024;2023-05-27T20:00:41;3;3;3
70243;PMS7003;57634;51.136;17.024;2023-05-27T20:03:42;6;5;4
70243;PMS7003;57634;51.136;17.024;2023-05-27T20:06:46;5;4;4
70243;PMS7003;57634;51.136;17.024;2023-05-27T20:09:47;6;5;4
70243;PMS7003;57634;51.136;17.024;2023-05-27T20:12:48;6;5;4
70243;PMS7003;57634;51.136;17.024;2023-05-27T20:15:49;7;5;4
70243;PMS7003;57634;51.136;17.024;2023-05-27T20:18:51;4;4;3
70243;PMS7003;57634;51.136;17.024;2023-05-27T20:21:52;4;4;3
70243;PMS7003;57634;51.136;17.024;2023-05-27T20:24:53;4;3;3
70243;PMS7003;57634;51.136;17.024;2023-05-27T20:27:56;8;6;4
70243;PMS7003;57634;51.136;17.024;2023-05-27T20:30:57;4;4;3
70243;PMS7003;57634;51.136;17.024;2023-05-27T20:33:58;5;5;4
70243;PMS7003;57634;51.136;17.024;2023-05-27T20:37:27;5;5;5
70243;PMS7003;57634;51.136;17.024;2023-05-27T20:40:30;5;5;4